sensor_id;sensor_type;location;lat;lon;timestamp;temperature;humidity
52725;DHT22;38621;52.830;6.914;2023-03-25T00:01:03;9.50;99.90
52725;DHT22;38621;52.830;6.914;2023-03-25T00:03:34;9.50;99.90
52725;DHT22;38621;52.830;6.914;2023-03-25T00:06:07;9.50;99.90
52725;DHT22;38621;52.830;6.914;2023-03-25T00:08:32;9.50;99.90
52725;DHT22;38621;52.830;6.914;2023-03-25T00:11:00;9.60;99.90
52725;DHT22;38621;52.830;6.914;2023-03-25T00:13:26;9.50;99.90
52725;DHT22;38621;52.830;6.914;2023-03-25T00:15:52;9.50;99.90
52725;DHT22;38621;52.830;6.914;2023-03-25T00:18:24;9.50;99.90
52725;DHT22;38621;52.830;6.914;2023-03-25T00:20:51;9.50;99.90
52725;DHT22;38621;52.830;6.914;2023-03-25T00:23:18;9.40;99.90
52725;DHT22;38621;52.830;6.914;2023-03-25T00:25:44;9.40;99.90
52725;DHT22;38621;52.830;6.914;2023-03-25T00:28:11;9.40;99.90
52725;DHT22;38621;52.830;6.914;2023-03-25T00:30:39;9.40;99.90
52725;DHT22;38621;52.830;6.914;2023-03-25T00:33:05;9.40;99.90
52725;DHT22;38621;52.830;6.914;2023-03-25T00:35:30;9.40;99.90
52725;DHT22;38621;52.830;6.914;2023-03-25T00:37:58;9.30;99.90
52725;DHT22;38621;52.830;6.914;2023-03-25T00:40:31;9.40;99.90
52725;DHT22;38621;52.830;6.914;2023-03-25T00:43:01;9.40;99.90
52725;DHT22;38621;52.830;6.914;2023-03-25T00:45:28;9.30;99.90
52725;DHT22;38621;52.830;6.914;2023-03-25T00:47:53;9.30;99.90
52725;DHT22;38621;52.830;6.914;2023-03-25T00:50:20;9.40;99.90
52725;DHT22;38621;52.830;6.914;2023-03-25T00:52:46;9.30;99.90
52725;DHT22;38621;52.830;6.914;2023-03-25T00:55:12;9.30;99.90
52725;DHT22;38621;52.830;6.914;2023-03-25T00:57:38;9.30;99.90
52725;DHT22;38621;52.830;6.914;2023-03-25T01:00:06;9.30;99.90
52725;DHT22;38621;52.830;6.914;2023-03-25T01:02:33;9.20;99.90
52725;DHT22;38621;52.830;6.914;2023-03-25T01:04:59;9.20;99.90
52725;DHT22;38621;52.830;6.914;2023-03-25T01:07:25;9.20;99.90
52725;DHT22;38621;52.830;6.914;2023-03-25T01:09:54;9.20;99.90
52725;DHT22;38621;52.830;6.914;2023-03-25T01:12:20;9.20;99.90
52725;DHT22;38621;52.830;6.914;2023-03-25T01:14:46;9.20;99.90
52725;DHT22;38621;52.830;6.914;2023-03-25T01:17:12;9.20;99.90
52725;DHT22;38621;52.830;6.914;2023-03-25T01:19:38;9.20;99.90
52725;DHT22;38621;52.830;6.914;2023-03-25T01:22:04;9.10;99.90
52725;DHT22;38621;52.830;6.914;2023-03-25T01:24:30;9.10;99.90
52725;DHT22;38621;52.830;6.914;2023-03-25T01:26:55;9.10;99.90
52725;DHT22;38621;52.830;6.914;2023-03-25T01:29:21;9.10;99.90
52725;DHT22;38621;52.830;6.914;2023-03-25T01:31:47;9.00;99.90
52725;DHT22;38621;52.830;6.914;2023-03-25T01:34:14;9.10;99.90
52725;DHT22;38621;52.830;6.914;2023-03-25T01:36:40;9.00;99.90
52725;DHT22;38621;52.830;6.914;2023-03-25T01:39:11;9.00;99.90
52725;DHT22;38621;52.830;6.914;2023-03-25T01:41:37;9.00;99.90
52725;DHT22;38621;52.830;6.914;2023-03-25T01:44:07;9.00;99.90
52725;DHT22;38621;52.830;6.914;2023-03-25T01:46:35;9.00;99.90
52725;DHT22;38621;52.830;6.914;2023-03-25T01:49:05;8.90;99.90
52725;DHT22;38621;52.830;6.914;2023-03-25T01:51:38;8.90;99.90
52725;DHT22;38621;52.830;6.914;2023-03-25T01:54:05;8.90;99.90
52725;DHT22;38621;52.830;6.914;2023-03-25T01:56:34;8.80;99.90
52725;DHT22;38621;52.830;6.914;2023-03-25T01:59:04;8.80;99.90
52725;DHT22;38621;52.830;6.914;2023-03-25T02:01:31;8.80;99.90
52725;DHT22;38621;52.830;6.914;2023-03-25T02:03:57;8.70;99.90
52725;DHT22;38621;52.830;6.914;2023-03-25T02:06:45;8.70;99.90
52725;DHT22;38621;52.830;6.914;2023-03-25T02:09:15;8.60;99.90
52725;DHT22;38621;52.830;6.914;2023-03-25T02:11:41;8.40;99.90
52725;DHT22;38621;52.830;6.914;2023-03-25T02:14:10;8.40;99.90
52725;DHT22;38621;52.830;6.914;2023-03-25T02:25:43;8.10;99.90
52725;DHT22;38621;52.830;6.914;2023-03-25T02:39:41;8.00;99.90
52725;DHT22;38621;52.830;6.914;2023-03-25T02:45:12;7.90;99.90
52725;DHT22;38621;52.830;6.914;2023-03-25T02:47:46;7.90;99.90
52725;DHT22;38621;52.830;6.914;2023-03-25T02:50:30;7.90;99.90
52725;DHT22;38621;52.830;6.914;2023-03-25T02:53:00;7.80;99.90
52725;DHT22;38621;52.830;6.914;2023-03-25T02:55:28;7.90;99.90
52725;DHT22;38621;52.830;6.914;2023-03-25T02:57:58;7.90;99.90
52725;DHT22;38621;52.830;6.914;2023-03-25T03:00:29;7.90;99.90
52725;DHT22;38621;52.830;6.914;2023-03-25T03:03:03;7.90;99.90
52725;DHT22;38621;52.830;6.914;2023-03-25T03:05:32;7.90;99.90
52725;DHT22;38621;52.830;6.914;2023-03-25T03:11:01;8.00;99.90
52725;DHT22;38621;52.830;6.914;2023-03-25T03:17:01;8.00;99.90
52725;DHT22;38621;52.830;6.914;2023-03-25T03:22:22;7.90;99.90
52725;DHT22;38621;52.830;6.914;2023-03-25T03:35:57;7.90;99.90
52725;DHT22;38621;52.830;6.914;2023-03-25T03:38:29;7.90;99.90
52725;DHT22;38621;52.830;6.914;2023-03-25T03:41:00;7.90;99.90
52725;DHT22;38621;52.830;6.914;2023-03-25T03:43:39;8.00;99.90
52725;DHT22;38621;52.830;6.914;2023-03-25T03:46:14;8.00;99.90
52725;DHT22;38621;52.830;6.914;2023-03-25T03:48:45;8.00;99.90
52725;DHT22;38621;52.830;6.914;2023-03-25T03:51:18;8.00;99.90
52725;DHT22;38621;52.830;6.914;2023-03-25T03:54:24;7.90;99.90
52725;DHT22;38621;52.830;6.914;2023-03-25T03:56:58;7.90;99.90
52725;DHT22;38621;52.830;6.914;2023-03-25T03:59:37;8.00;99.90
52725;DHT22;38621;52.830;6.914;2023-03-25T04:02:37;7.90;99.90
52725;DHT22;38621;52.830;6.914;2023-03-25T04:05:06;8.00;99.90
52725;DHT22;38621;52.830;6.914;2023-03-25T04:07:42;8.00;99.90
52725;DHT22;38621;52.830;6.914;2023-03-25T04:10:29;8.00;99.90
52725;DHT22;38621;52.830;6.914;2023-03-25T04:13:02;8.00;99.90
52725;DHT22;38621;52.830;6.914;2023-03-25T04:15:29;8.00;99.90
52725;DHT22;38621;52.830;6.914;2023-03-25T04:17:54;8.00;99.90
52725;DHT22;38621;52.830;6.914;2023-03-25T04:20:23;8.00;99.90
52725;DHT22;38621;52.830;6.914;2023-03-25T04:22:51;8.00;99.90
52725;DHT22;38621;52.830;6.914;2023-03-25T04:25:17;8.10;99.90
52725;DHT22;38621;52.830;6.914;2023-03-25T04:27:46;8.00;99.90
52725;DHT22;38621;52.830;6.914;2023-03-25T04:30:14;8.00;99.90
52725;DHT22;38621;52.830;6.914;2023-03-25T04:32:45;8.00;99.90
52725;DHT22;38621;52.830;6.914;2023-03-25T04:35:15;8.00;99.90
52725;DHT22;38621;52.830;6.914;2023-03-25T04:37:43;7.90;99.90
52725;DHT22;38621;52.830;6.914;2023-03-25T04:40:18;7.90;99.90
52725;DHT22;38621;52.830;6.914;2023-03-25T04:42:44;7.90;99.90
52725;DHT22;38621;52.830;6.914;2023-03-25T04:45:12;7.90;99.90
52725;DHT22;38621;52.830;6.914;2023-03-25T04:47:45;7.90;99.90
52725;DHT22;38621;52.830;6.914;2023-03-25T04:50:23;7.80;99.90
52725;DHT22;38621;52.830;6.914;2023-03-25T04:52:50;7.90;99.90
52725;DHT22;38621;52.830;6.914;2023-03-25T04:55:18;7.80;99.90
52725;DHT22;38621;52.830;6.914;2023-03-25T04:57:49;7.90;99.90
52725;DHT22;38621;52.830;6.914;2023-03-25T05:00:18;7.90;99.90
52725;DHT22;38621;52.830;6.914;2023-03-25T05:02:46;7.90;99.90
52725;DHT22;38621;52.830;6.914;2023-03-25T05:05:13;7.90;99.90
52725;DHT22;38621;52.830;6.914;2023-03-25T05:07:53;7.90;99.90
52725;DHT22;38621;52.830;6.914;2023-03-25T05:10:21;7.90;99.90
52725;DHT22;38621;52.830;6.914;2023-03-25T05:12:47;7.80;99.90
52725;DHT22;38621;52.830;6.914;2023-03-25T05:15:13;7.80;99.90
52725;DHT22;38621;52.830;6.914;2023-03-25T05:17:42;7.80;99.90
52725;DHT22;38621;52.830;6.914;2023-03-25T05:20:09;7.90;99.90
52725;DHT22;38621;52.830;6.914;2023-03-25T05:22:38;7.80;99.90
52725;DHT22;38621;52.830;6.914;2023-03-25T05:25:06;7.80;99.90
52725;DHT22;38621;52.830;6.914;2023-03-25T05:27:33;7.80;99.90
52725;DHT22;38621;52.830;6.914;2023-03-25T05:29:59;7.90;99.90
52725;DHT22;38621;52.830;6.914;2023-03-25T05:32:26;7.80;99.90
52725;DHT22;38621;52.830;6.914;2023-03-25T05:34:58;7.90;99.90
52725;DHT22;38621;52.830;6.914;2023-03-25T05:37:25;7.90;99.90
52725;DHT22;38621;52.830;6.914;2023-03-25T05:39:51;7.90;99.90
52725;DHT22;38621;52.830;6.914;2023-03-25T05:42:17;8.00;99.90
52725;DHT22;38621;52.830;6.914;2023-03-25T05:44:47;8.00;99.90
52725;DHT22;38621;52.830;6.914;2023-03-25T05:47:23;8.00;99.90
52725;DHT22;38621;52.830;6.914;2023-03-25T05:49:50;8.00;99.90
52725;DHT22;38621;52.830;6.914;2023-03-25T05:52:17;7.90;99.90
52725;DHT22;38621;52.830;6.914;2023-03-25T05:54:44;7.80;99.90
52725;DHT22;38621;52.830;6.914;2023-03-25T05:57:11;7.70;99.90
52725;DHT22;38621;52.830;6.914;2023-03-25T05:59:38;7.70;99.90
52725;DHT22;38621;52.830;6.914;2023-03-25T06:02:06;7.60;99.90
52725;DHT22;38621;52.830;6.914;2023-03-25T06:04:34;7.50;99.90
52725;DHT22;38621;52.830;6.914;2023-03-25T06:07:06;7.50;99.90
52725;DHT22;38621;52.830;6.914;2023-03-25T06:09:34;7.40;99.90
52725;DHT22;38621;52.830;6.914;2023-03-25T06:12:01;7.20;99.90
52725;DHT22;38621;52.830;6.914;2023-03-25T06:14:28;7.10;99.90
52725;DHT22;38621;52.830;6.914;2023-03-25T06:16:54;7.00;99.90
52725;DHT22;38621;52.830;6.914;2023-03-25T06:19:21;7.00;99.90
52725;DHT22;38621;52.830;6.914;2023-03-25T06:21:50;7.00;99.90
52725;DHT22;38621;52.830;6.914;2023-03-25T06:24:16;7.10;99.90
52725;DHT22;38621;52.830;6.914;2023-03-25T06:26:42;7.20;99.90
52725;DHT22;38621;52.830;6.914;2023-03-25T06:29:07;7.30;99.90
52725;DHT22;38621;52.830;6.914;2023-03-25T06:31:33;7.50;99.90
52725;DHT22;38621;52.830;6.914;2023-03-25T06:33:59;7.50;99.90
52725;DHT22;38621;52.830;6.914;2023-03-25T06:36:25;7.50;99.90
52725;DHT22;38621;52.830;6.914;2023-03-25T06:38:52;7.50;99.90
52725;DHT22;38621;52.830;6.914;2023-03-25T06:41:19;7.50;99.90
52725;DHT22;38621;52.830;6.914;2023-03-25T06:43:46;7.50;99.90
52725;DHT22;38621;52.830;6.914;2023-03-25T06:46:12;7.50;99.90
52725;DHT22;38621;52.830;6.914;2023-03-25T06:48:37;7.50;99.90
52725;DHT22;38621;52.830;6.914;2023-03-25T06:51:03;7.50;99.90
52725;DHT22;38621;52.830;6.914;2023-03-25T06:53:29;7.50;99.90
52725;DHT22;38621;52.830;6.914;2023-03-25T06:55:56;7.50;99.90
52725;DHT22;38621;52.830;6.914;2023-03-25T06:58:22;7.60;99.90
52725;DHT22;38621;52.830;6.914;2023-03-25T07:00:53;7.50;99.90
52725;DHT22;38621;52.830;6.914;2023-03-25T07:03:19;7.60;99.90
52725;DHT22;38621;52.830;6.914;2023-03-25T07:05:46;7.60;99.90
52725;DHT22;38621;52.830;6.914;2023-03-25T07:08:12;7.60;99.90
52725;DHT22;38621;52.830;6.914;2023-03-25T07:10:39;7.80;99.90
52725;DHT22;38621;52.830;6.914;2023-03-25T07:13:05;7.90;99.90
52725;DHT22;38621;52.830;6.914;2023-03-25T07:15:30;8.00;99.90
52725;DHT22;38621;52.830;6.914;2023-03-25T07:17:56;8.20;99.90
52725;DHT22;38621;52.830;6.914;2023-03-25T07:20:22;8.20;99.90
52725;DHT22;38621;52.830;6.914;2023-03-25T07:22:47;8.40;99.90
52725;DHT22;38621;52.830;6.914;2023-03-25T07:25:13;8.50;99.90
52725;DHT22;38621;52.830;6.914;2023-03-25T07:27:39;8.60;99.90
52725;DHT22;38621;52.830;6.914;2023-03-25T07:30:05;8.60;99.90
52725;DHT22;38621;52.830;6.914;2023-03-25T07:32:31;8.60;99.90
52725;DHT22;38621;52.830;6.914;2023-03-25T07:34:57;8.70;99.90
52725;DHT22;38621;52.830;6.914;2023-03-25T07:37:22;8.80;99.90
52725;DHT22;38621;52.830;6.914;2023-03-25T07:39:48;8.90;99.90
52725;DHT22;38621;52.830;6.914;2023-03-25T07:42:14;8.90;99.90
52725;DHT22;38621;52.830;6.914;2023-03-25T07:44:40;9.00;99.90
52725;DHT22;38621;52.830;6.914;2023-03-25T07:47:05;9.10;99.90
52725;DHT22;38621;52.830;6.914;2023-03-25T07:49:31;9.20;99.90
52725;DHT22;38621;52.830;6.914;2023-03-25T07:51:56;9.10;99.90
52725;DHT22;38621;52.830;6.914;2023-03-25T07:54:22;8.90;99.90
52725;DHT22;38621;52.830;6.914;2023-03-25T07:56:49;8.70;99.90
52725;DHT22;38621;52.830;6.914;2023-03-25T07:59:17;8.50;99.90
52725;DHT22;38621;52.830;6.914;2023-03-25T08:01:43;8.40;99.90
52725;DHT22;38621;52.830;6.914;2023-03-25T08:04:08;8.40;99.90
52725;DHT22;38621;52.830;6.914;2023-03-25T08:06:34;8.30;99.90
52725;DHT22;38621;52.830;6.914;2023-03-25T08:09:00;8.30;99.90
52725;DHT22;38621;52.830;6.914;2023-03-25T08:11:26;8.30;99.90
52725;DHT22;38621;52.830;6.914;2023-03-25T08:13:52;8.30;99.90
52725;DHT22;38621;52.830;6.914;2023-03-25T08:16:17;8.20;99.90
52725;DHT22;38621;52.830;6.914;2023-03-25T08:18:43;8.20;99.90
52725;DHT22;38621;52.830;6.914;2023-03-25T08:21:18;8.20;99.90
52725;DHT22;38621;52.830;6.914;2023-03-25T08:23:50;8.20;99.90
52725;DHT22;38621;52.830;6.914;2023-03-25T08:26:16;8.20;99.90
52725;DHT22;38621;52.830;6.914;2023-03-25T08:28:42;8.10;99.90
52725;DHT22;38621;52.830;6.914;2023-03-25T08:31:07;8.00;99.90
52725;DHT22;38621;52.830;6.914;2023-03-25T08:33:34;8.00;99.90
52725;DHT22;38621;52.830;6.914;2023-03-25T08:36:06;8.10;99.90
52725;DHT22;38621;52.830;6.914;2023-03-25T08:38:34;8.20;99.90
52725;DHT22;38621;52.830;6.914;2023-03-25T08:41:01;8.20;99.90
52725;DHT22;38621;52.830;6.914;2023-03-25T08:43:26;8.40;99.90
52725;DHT22;38621;52.830;6.914;2023-03-25T08:45:52;8.50;99.90
52725;DHT22;38621;52.830;6.914;2023-03-25T08:48:18;8.60;99.90
52725;DHT22;38621;52.830;6.914;2023-03-25T08:50:44;8.60;99.90
52725;DHT22;38621;52.830;6.914;2023-03-25T08:53:10;8.60;99.90
52725;DHT22;38621;52.830;6.914;2023-03-25T08:55:35;8.60;99.90
52725;DHT22;38621;52.830;6.914;2023-03-25T08:58:05;8.60;99.90
52725;DHT22;38621;52.830;6.914;2023-03-25T09:00:33;8.70;99.90
52725;DHT22;38621;52.830;6.914;2023-03-25T09:03:01;8.90;99.90
52725;DHT22;38621;52.830;6.914;2023-03-25T09:05:27;9.00;99.90
52725;DHT22;38621;52.830;6.914;2023-03-25T09:07:52;8.90;99.90
52725;DHT22;38621;52.830;6.914;2023-03-25T09:10:18;9.00;99.90
52725;DHT22;38621;52.830;6.914;2023-03-25T09:12:44;9.00;99.90
52725;DHT22;38621;52.830;6.914;2023-03-25T09:15:10;9.00;99.90
52725;DHT22;38621;52.830;6.914;2023-03-25T09:17:38;8.90;99.90
52725;DHT22;38621;52.830;6.914;2023-03-25T09:20:04;8.90;99.90
52725;DHT22;38621;52.830;6.914;2023-03-25T09:22:33;8.90;99.90
52725;DHT22;38621;52.830;6.914;2023-03-25T09:24:59;9.10;99.90
52725;DHT22;38621;52.830;6.914;2023-03-25T09:27:25;9.30;99.90
52725;DHT22;38621;52.830;6.914;2023-03-25T09:29:50;9.40;99.90
52725;DHT22;38621;52.830;6.914;2023-03-25T09:32:16;9.40;99.90
52725;DHT22;38621;52.830;6.914;2023-03-25T09:34:43;9.20;99.90
52725;DHT22;38621;52.830;6.914;2023-03-25T09:37:10;9.00;99.90
52725;DHT22;38621;52.830;6.914;2023-03-25T09:39:36;8.70;99.90
52725;DHT22;38621;52.830;6.914;2023-03-25T09:47:22;8.80;99.90
52725;DHT22;38621;52.830;6.914;2023-03-25T09:49:52;8.90;99.90
52725;DHT22;38621;52.830;6.914;2023-03-25T09:52:24;9.00;99.90
52725;DHT22;38621;52.830;6.914;2023-03-25T09:54:54;9.10;99.90
52725;DHT22;38621;52.830;6.914;2023-03-25T09:57:25;9.10;99.90
52725;DHT22;38621;52.830;6.914;2023-03-25T09:59:53;9.00;99.90
52725;DHT22;38621;52.830;6.914;2023-03-25T10:02:32;8.90;99.90
52725;DHT22;38621;52.830;6.914;2023-03-25T10:07:55;8.80;99.90
52725;DHT22;38621;52.830;6.914;2023-03-25T10:13:18;8.70;99.90
52725;DHT22;38621;52.830;6.914;2023-03-25T10:27:01;9.00;99.90
52725;DHT22;38621;52.830;6.914;2023-03-25T10:29:37;9.10;99.90
52725;DHT22;38621;52.830;6.914;2023-03-25T10:32:15;9.00;99.90
52725;DHT22;38621;52.830;6.914;2023-03-25T10:34:48;9.10;99.90
52725;DHT22;38621;52.830;6.914;2023-03-25T10:37:29;9.20;99.90
52725;DHT22;38621;52.830;6.914;2023-03-25T10:40:02;9.30;99.90
52725;DHT22;38621;52.830;6.914;2023-03-25T10:42:39;9.30;99.90
52725;DHT22;38621;52.830;6.914;2023-03-25T10:45:13;9.30;99.90
52725;DHT22;38621;52.830;6.914;2023-03-25T10:47:39;9.40;99.90
52725;DHT22;38621;52.830;6.914;2023-03-25T10:50:16;9.40;99.90
52725;DHT22;38621;52.830;6.914;2023-03-25T10:52:43;9.40;99.90
52725;DHT22;38621;52.830;6.914;2023-03-25T10:55:22;9.30;99.90
52725;DHT22;38621;52.830;6.914;2023-03-25T10:57:49;9.10;99.90
52725;DHT22;38621;52.830;6.914;2023-03-25T11:00:16;8.90;99.90
52725;DHT22;38621;52.830;6.914;2023-03-25T11:02:43;8.90;99.90
52725;DHT22;38621;52.830;6.914;2023-03-25T11:05:09;8.90;99.90
52725;DHT22;38621;52.830;6.914;2023-03-25T11:07:49;9.10;99.90
52725;DHT22;38621;52.830;6.914;2023-03-25T11:10:25;9.30;99.90
52725;DHT22;38621;52.830;6.914;2023-03-25T11:12:52;9.30;99.90
52725;DHT22;38621;52.830;6.914;2023-03-25T11:15:28;9.20;99.90
52725;DHT22;38621;52.830;6.914;2023-03-25T11:20:47;9.00;99.90
52725;DHT22;38621;52.830;6.914;2023-03-25T11:23:36;9.00;99.90
52725;DHT22;38621;52.830;6.914;2023-03-25T11:26:12;9.00;99.90
52725;DHT22;38621;52.830;6.914;2023-03-25T11:28:40;9.10;99.90
52725;DHT22;38621;52.830;6.914;2023-03-25T11:31:18;9.10;99.90
52725;DHT22;38621;52.830;6.914;2023-03-25T11:33:46;9.40;99.90
52725;DHT22;38621;52.830;6.914;2023-03-25T11:36:28;9.70;99.90
52725;DHT22;38621;52.830;6.914;2023-03-25T11:39:00;9.80;99.90
52725;DHT22;38621;52.830;6.914;2023-03-25T11:41:28;10.00;99.90
52725;DHT22;38621;52.830;6.914;2023-03-25T11:43:55;10.10;99.90
52725;DHT22;38621;52.830;6.914;2023-03-25T11:46:21;10.20;99.90
52725;DHT22;38621;52.830;6.914;2023-03-25T11:48:48;10.30;99.90
52725;DHT22;38621;52.830;6.914;2023-03-25T11:51:23;10.30;99.90
52725;DHT22;38621;52.830;6.914;2023-03-25T11:54:01;10.30;99.90
52725;DHT22;38621;52.830;6.914;2023-03-25T11:56:36;10.30;99.90
52725;DHT22;38621;52.830;6.914;2023-03-25T11:59:07;10.30;99.90
52725;DHT22;38621;52.830;6.914;2023-03-25T12:01:37;10.40;99.90
52725;DHT22;38621;52.830;6.914;2023-03-25T12:04:15;10.40;99.90
52725;DHT22;38621;52.830;6.914;2023-03-25T12:06:55;10.50;99.90
52725;DHT22;38621;52.830;6.914;2023-03-25T12:09:25;10.50;99.90
52725;DHT22;38621;52.830;6.914;2023-03-25T12:12:21;10.40;99.90
52725;DHT22;38621;52.830;6.914;2023-03-25T12:17:36;9.90;99.90
52725;DHT22;38621;52.830;6.914;2023-03-25T12:22:54;9.90;99.90
52725;DHT22;38621;52.830;6.914;2023-03-25T12:45:29;10.70;99.90
52725;DHT22;38621;52.830;6.914;2023-03-25T12:48:18;11.10;99.90
52725;DHT22;38621;52.830;6.914;2023-03-25T13:10:05;11.20;99.90
52725;DHT22;38621;52.830;6.914;2023-03-25T13:12:38;11.50;99.90
52725;DHT22;38621;52.830;6.914;2023-03-25T13:15:45;11.50;99.90
52725;DHT22;38621;52.830;6.914;2023-03-25T13:18:24;11.40;99.90
52725;DHT22;38621;52.830;6.914;2023-03-25T13:23:42;11.20;99.90
52725;DHT22;38621;52.830;6.914;2023-03-25T13:26:20;11.10;99.90
52725;DHT22;38621;52.830;6.914;2023-03-25T13:28:52;10.30;99.90
52725;DHT22;38621;52.830;6.914;2023-03-25T13:31:25;9.50;99.90
52725;DHT22;38621;52.830;6.914;2023-03-25T13:37:11;9.20;99.90
52725;DHT22;38621;52.830;6.914;2023-03-25T13:45:24;9.90;99.90
52725;DHT22;38621;52.830;6.914;2023-03-25T13:47:57;10.10;99.90
52725;DHT22;38621;52.830;6.914;2023-03-25T13:50:32;10.20;99.90
52725;DHT22;38621;52.830;6.914;2023-03-25T13:56:22;10.40;99.90
52725;DHT22;38621;52.830;6.914;2023-03-25T13:59:09;10.50;99.90
52725;DHT22;38621;52.830;6.914;2023-03-25T14:04:29;11.00;99.90
52725;DHT22;38621;52.830;6.914;2023-03-25T14:13:37;10.90;99.90
52725;DHT22;38621;52.830;6.914;2023-03-25T14:16:13;10.80;99.90
52725;DHT22;38621;52.830;6.914;2023-03-25T14:18:46;10.80;99.90
52725;DHT22;38621;52.830;6.914;2023-03-25T14:21:30;10.80;99.90
52725;DHT22;38621;52.830;6.914;2023-03-25T14:24:11;10.70;99.90
52725;DHT22;38621;52.830;6.914;2023-03-25T14:26:51;10.70;99.90
52725;DHT22;38621;52.830;6.914;2023-03-25T14:29:36;10.60;99.90
52725;DHT22;38621;52.830;6.914;2023-03-25T14:34:35;10.50;99.90
52725;DHT22;38621;52.830;6.914;2023-03-25T14:41:59;10.10;99.90
52725;DHT22;38621;52.830;6.914;2023-03-25T14:44:39;9.40;99.90
52725;DHT22;38621;52.830;6.914;2023-03-25T14:52:35;8.50;99.90
52725;DHT22;38621;52.830;6.914;2023-03-25T14:55:08;8.30;99.90
52725;DHT22;38621;52.830;6.914;2023-03-25T14:57:39;7.70;99.90
52725;DHT22;38621;52.830;6.914;2023-03-25T15:00:07;7.30;99.90
52725;DHT22;38621;52.830;6.914;2023-03-25T15:02:43;7.10;99.90
52725;DHT22;38621;52.830;6.914;2023-03-25T15:05:22;7.10;99.90
52725;DHT22;38621;52.830;6.914;2023-03-25T15:10:32;7.30;99.90
52725;DHT22;38621;52.830;6.914;2023-03-25T15:13:28;7.40;99.90
52725;DHT22;38621;52.830;6.914;2023-03-25T15:16:02;7.50;99.90
52725;DHT22;38621;52.830;6.914;2023-03-25T15:21:11;7.90;99.90
52725;DHT22;38621;52.830;6.914;2023-03-25T15:23:47;8.30;99.90
52725;DHT22;38621;52.830;6.914;2023-03-25T15:37:08;8.40;99.90
52725;DHT22;38621;52.830;6.914;2023-03-25T15:39:41;8.30;99.90
52725;DHT22;38621;52.830;6.914;2023-03-25T15:45:25;8.30;99.90
52725;DHT22;38621;52.830;6.914;2023-03-25T15:48:02;8.30;99.90
52725;DHT22;38621;52.830;6.914;2023-03-25T15:56:05;8.30;99.90
52725;DHT22;38621;52.830;6.914;2023-03-25T16:01:36;8.30;99.90
52725;DHT22;38621;52.830;6.914;2023-03-25T16:04:04;8.50;99.90
52725;DHT22;38621;52.830;6.914;2023-03-25T16:06:34;8.60;99.90
52725;DHT22;38621;52.830;6.914;2023-03-25T16:09:05;8.70;99.90
52725;DHT22;38621;52.830;6.914;2023-03-25T16:11:33;8.80;99.90
52725;DHT22;38621;52.830;6.914;2023-03-25T16:14:16;8.90;99.90
52725;DHT22;38621;52.830;6.914;2023-03-25T16:16:55;9.10;99.90
52725;DHT22;38621;52.830;6.914;2023-03-25T16:19:36;9.20;99.90
52725;DHT22;38621;52.830;6.914;2023-03-25T16:22:20;9.10;99.90
52725;DHT22;38621;52.830;6.914;2023-03-25T16:24:48;9.20;99.90
52725;DHT22;38621;52.830;6.914;2023-03-25T16:27:29;9.30;99.90
52725;DHT22;38621;52.830;6.914;2023-03-25T16:29:55;9.30;99.90
52725;DHT22;38621;52.830;6.914;2023-03-25T16:32:39;9.30;99.90
52725;DHT22;38621;52.830;6.914;2023-03-25T16:35:05;9.30;99.90
52725;DHT22;38621;52.830;6.914;2023-03-25T16:37:32;9.30;99.90
52725;DHT22;38621;52.830;6.914;2023-03-25T16:39:58;9.10;99.90
52725;DHT22;38621;52.830;6.914;2023-03-25T16:42:29;9.00;99.90
52725;DHT22;38621;52.830;6.914;2023-03-25T16:44:58;8.80;99.90
52725;DHT22;38621;52.830;6.914;2023-03-25T16:47:25;8.70;99.90
52725;DHT22;38621;52.830;6.914;2023-03-25T16:49:53;8.70;99.90
52725;DHT22;38621;52.830;6.914;2023-03-25T16:52:25;8.70;99.90
52725;DHT22;38621;52.830;6.914;2023-03-25T16:57:24;8.70;99.90
52725;DHT22;38621;52.830;6.914;2023-03-25T16:59:52;8.70;99.90
52725;DHT22;38621;52.830;6.914;2023-03-25T17:02:37;8.70;99.90
52725;DHT22;38621;52.830;6.914;2023-03-25T17:07:41;8.70;99.90
52725;DHT22;38621;52.830;6.914;2023-03-25T17:10:27;8.70;99.90
52725;DHT22;38621;52.830;6.914;2023-03-25T17:12:56;8.70;99.90
52725;DHT22;38621;52.830;6.914;2023-03-25T17:15:24;8.70;99.90
52725;DHT22;38621;52.830;6.914;2023-03-25T17:17:52;8.70;99.90
52725;DHT22;38621;52.830;6.914;2023-03-25T17:20:32;8.70;99.90
52725;DHT22;38621;52.830;6.914;2023-03-25T17:23:00;8.70;99.90
52725;DHT22;38621;52.830;6.914;2023-03-25T17:25:35;8.70;99.90
52725;DHT22;38621;52.830;6.914;2023-03-25T17:28:32;8.70;99.90
52725;DHT22;38621;52.830;6.914;2023-03-25T17:30:58;8.70;99.90
52725;DHT22;38621;52.830;6.914;2023-03-25T17:33:35;8.80;99.90
52725;DHT22;38621;52.830;6.914;2023-03-25T17:36:08;8.70;99.90
52725;DHT22;38621;52.830;6.914;2023-03-25T17:38:41;8.80;99.90
52725;DHT22;38621;52.830;6.914;2023-03-25T17:41:10;8.70;99.90
52725;DHT22;38621;52.830;6.914;2023-03-25T17:43:45;8.70;99.90
52725;DHT22;38621;52.830;6.914;2023-03-25T17:46:25;8.80;99.90
52725;DHT22;38621;52.830;6.914;2023-03-25T17:48:51;8.70;99.90
52725;DHT22;38621;52.830;6.914;2023-03-25T17:51:20;8.70;99.90
52725;DHT22;38621;52.830;6.914;2023-03-25T17:53:46;8.70;99.90
52725;DHT22;38621;52.830;6.914;2023-03-25T17:56:13;8.70;99.90
52725;DHT22;38621;52.830;6.914;2023-03-25T17:58:41;8.70;99.90
52725;DHT22;38621;52.830;6.914;2023-03-25T18:01:12;8.70;99.90
52725;DHT22;38621;52.830;6.914;2023-03-25T18:03:38;8.70;99.90
52725;DHT22;38621;52.830;6.914;2023-03-25T18:06:04;8.70;99.90
52725;DHT22;38621;52.830;6.914;2023-03-25T18:08:30;8.70;99.90
52725;DHT22;38621;52.830;6.914;2023-03-25T18:10:56;8.70;99.90
52725;DHT22;38621;52.830;6.914;2023-03-25T18:13:23;8.80;99.90
52725;DHT22;38621;52.830;6.914;2023-03-25T18:15:51;8.70;99.90
52725;DHT22;38621;52.830;6.914;2023-03-25T18:18:23;8.60;99.90
52725;DHT22;38621;52.830;6.914;2023-03-25T18:20:49;8.60;99.90
52725;DHT22;38621;52.830;6.914;2023-03-25T18:23:16;8.50;99.90
52725;DHT22;38621;52.830;6.914;2023-03-25T18:25:42;8.60;99.90
52725;DHT22;38621;52.830;6.914;2023-03-25T18:28:12;8.60;99.90
52725;DHT22;38621;52.830;6.914;2023-03-25T18:33:08;8.60;99.90
52725;DHT22;38621;52.830;6.914;2023-03-25T18:35:34;8.60;99.90
52725;DHT22;38621;52.830;6.914;2023-03-25T18:38:00;8.60;99.90
52725;DHT22;38621;52.830;6.914;2023-03-25T18:40:32;8.60;99.90
52725;DHT22;38621;52.830;6.914;2023-03-25T18:42:58;8.60;99.90
52725;DHT22;38621;52.830;6.914;2023-03-25T18:45:25;8.60;99.90
52725;DHT22;38621;52.830;6.914;2023-03-25T18:47:52;8.50;99.90
52725;DHT22;38621;52.830;6.914;2023-03-25T18:52:46;8.50;99.90
52725;DHT22;38621;52.830;6.914;2023-03-25T18:55:12;8.40;99.90
52725;DHT22;38621;52.830;6.914;2023-03-25T18:57:38;8.40;99.90
52725;DHT22;38621;52.830;6.914;2023-03-25T19:00:15;8.40;99.90
52725;DHT22;38621;52.830;6.914;2023-03-25T19:02:43;8.40;99.90
52725;DHT22;38621;52.830;6.914;2023-03-25T19:05:10;8.40;99.90
52725;DHT22;38621;52.830;6.914;2023-03-25T19:07:36;8.30;99.90
52725;DHT22;38621;52.830;6.914;2023-03-25T19:10:02;8.30;99.90
52725;DHT22;38621;52.830;6.914;2023-03-25T19:12:28;8.30;99.90